createdAt,value
2019-06-10T00:04:23.229Z,3.10
2019-06-10T00:09:25.440Z,2.87
2019-06-10T00:14:27.608Z,2.80
2019-06-10T00:19:31.692Z,2.90
2019-06-10T00:24:33.838Z,2.97
2019-06-10T00:29:36.027Z,2.80
2019-06-10T00:34:38.217Z,3.70
2019-06-10T00:39:40.917Z,2.77
2019-06-10T00:44:43.137Z,2.77
2019-06-10T00:49:45.304Z,3.00
2019-06-10T00:54:47.709Z,3.30
2019-06-10T00:59:50.776Z,3.17
2019-06-10T01:04:53.191Z,3.13
2019-06-10T01:09:55.361Z,3.47
2019-06-10T01:14:57.595Z,3.47
2019-06-10T01:20:01.520Z,2.93
2019-06-10T01:25:05.221Z,3.30
2019-06-10T01:30:14.276Z,3.10
2019-06-10T01:35:14.520Z,3.00
2019-06-10T01:40:17.994Z,3.40
2019-06-10T01:45:21.277Z,3.30
2019-06-10T01:50:23.692Z,3.20
2019-06-10T01:55:25.883Z,3.13
2019-06-10T02:00:47.856Z,3.20
2019-06-10T02:05:51.663Z,3.50
2019-06-10T02:10:54.693Z,3.50
2019-06-10T02:16:00.501Z,3.10
2019-06-10T02:21:02.478Z,3.40
2019-06-10T02:26:05.045Z,3.10
2019-06-10T02:31:07.287Z,3.13
2019-06-10T02:36:09.449Z,3.47
2019-06-10T02:41:16.338Z,3.33
2019-06-10T02:46:19.705Z,3.60
2019-06-10T02:51:24.514Z,3.40
2019-06-10T02:56:30.692Z,3.70
2019-06-10T03:01:34.218Z,5.17
2019-06-10T03:06:39.756Z,5.40
2019-06-10T03:11:39.876Z,5.40
2019-06-10T03:16:46.859Z,5.90
2019-06-10T03:21:49.420Z,5.40
2019-06-10T03:26:52.220Z,6.17
2019-06-10T03:31:55.755Z,4.83
2019-06-10T03:36:59.591Z,5.57
2019-06-10T03:42:02.345Z,6.27
2019-06-10T03:47:04.948Z,5.90
2019-06-10T03:52:08.008Z,5.10
2019-06-10T03:57:12.078Z,6.20
2019-06-10T04:02:14.327Z,5.13
2019-06-10T04:07:17.975Z,5.87
2019-06-10T04:12:22.172Z,5.47
2019-06-10T04:17:27.371Z,5.37
2019-06-10T04:22:32.935Z,6.77
2019-06-10T04:27:35.892Z,6.47
2019-06-10T04:32:38.085Z,5.67
2019-06-10T04:37:42.841Z,6.43
2019-06-10T04:42:46.555Z,6.47
2019-06-10T04:47:48.841Z,6.63
2019-06-10T04:52:52.868Z,6.13
2019-06-10T04:57:55.273Z,6.17
2019-06-10T05:02:57.448Z,5.33
2019-06-10T05:08:02.524Z,5.70
2019-06-10T05:13:04.833Z,5.67
2019-06-10T05:18:07.018Z,5.07
2019-06-10T05:23:09.275Z,6.10
2019-06-10T05:28:12.390Z,5.80
2019-06-10T05:33:15.113Z,5.73
2019-06-10T05:38:17.449Z,6.33
2019-06-10T05:43:21.960Z,5.50
2019-06-10T05:48:25.592Z,6.03
2019-06-10T05:53:29.237Z,6.03
2019-06-10T05:58:35.795Z,6.13
2019-06-10T06:03:37.968Z,5.90
2019-06-10T06:08:42.912Z,6.80
2019-06-10T06:13:45.699Z,6.90
2019-06-10T06:18:47.897Z,6.07
2019-06-10T06:23:52.606Z,6.50
2019-06-10T06:28:55.013Z,6.33
2019-06-10T06:33:57.487Z,6.97
2019-06-10T06:39:02.177Z,6.87
2019-06-10T06:44:05.788Z,7.00
2019-06-10T06:49:08.000Z,7.30
2019-06-10T06:54:12.348Z,6.57
2019-06-10T06:59:14.448Z,6.60
2019-06-10T07:04:16.788Z,6.93
2019-06-10T07:09:21.978Z,7.13
2019-06-10T07:14:27.547Z,6.57
2019-06-10T07:19:29.773Z,7.37
2019-06-10T07:24:34.191Z,6.67
2019-06-10T07:29:39.173Z,6.13
2019-06-10T07:34:46.453Z,5.70
2019-06-10T07:39:46.046Z,5.97
2019-06-10T07:44:48.289Z,6.03
2019-06-10T07:49:52.312Z,6.10
2019-06-10T07:54:54.991Z,5.80
2019-06-10T07:59:57.506Z,6.13
2019-06-10T08:04:59.660Z,5.60
2019-06-10T08:10:04.071Z,5.40
2019-06-10T08:15:07.494Z,5.43
2019-06-10T08:20:13.163Z,5.87
2019-06-10T08:25:14.997Z,5.40
2019-06-10T08:30:23.163Z,5.47
2019-06-10T08:35:37.660Z,5.43
2019-06-10T08:40:27.401Z,6.10
2019-06-10T08:45:29.663Z,5.50
2019-06-10T08:50:33.675Z,5.40
2019-06-10T08:55:37.413Z,5.40
2019-06-10T09:00:44.384Z,5.13
2019-06-10T09:05:49.001Z,5.60
2019-06-10T09:10:54.156Z,5.93
2019-06-10T09:16:09.671Z,5.77
2019-06-10T09:20:59.088Z,5.87
2019-06-10T09:26:03.638Z,5.60
2019-06-10T09:31:06.608Z,5.97
2019-06-10T09:36:09.422Z,5.83
2019-06-10T09:41:14.135Z,6.10
2019-06-10T09:46:18.549Z,6.00
2019-06-10T09:51:23.094Z,6.23
2019-06-10T09:56:25.349Z,5.47
2019-06-10T10:01:27.955Z,5.60
2019-06-10T10:06:32.698Z,6.23
2019-06-10T10:11:35.062Z,5.73
2019-06-10T10:16:37.666Z,5.80
2019-06-10T10:21:42.304Z,6.40
2019-06-10T10:26:47.143Z,6.00
2019-06-10T10:31:50.799Z,5.80
2019-06-10T10:36:56.970Z,6.17
2019-06-10T10:41:57.462Z,5.77
2019-06-10T10:46:59.638Z,5.97
2019-06-10T10:52:02.728Z,6.30
2019-06-10T10:57:05.196Z,6.27
2019-06-10T11:02:08.710Z,6.13
2019-06-10T11:07:12.981Z,6.63
2019-06-10T11:12:17.153Z,6.83
2019-06-10T11:17:19.715Z,6.30
2019-06-10T11:22:23.288Z,7.07
2019-06-10T11:27:25.487Z,7.03
2019-06-10T11:32:28.345Z,6.33
2019-06-10T11:37:31.007Z,7.50
2019-06-10T11:42:33.634Z,6.47
2019-06-10T11:47:37.038Z,7.57
2019-06-10T11:52:39.864Z,6.83
2019-06-10T11:57:42.750Z,6.90
2019-06-10T12:02:45.298Z,7.20
2019-06-10T12:07:48.873Z,6.60
2019-06-10T12:12:55.083Z,7.20
2019-06-10T12:18:01.823Z,6.83
2019-06-10T12:23:01.944Z,7.23
2019-06-10T12:28:07.307Z,6.73
2019-06-10T12:33:08.920Z,7.00
2019-06-10T12:38:13.834Z,7.50
2019-06-10T12:43:15.712Z,6.97
2019-06-10T12:48:18.496Z,7.50
2019-06-10T12:53:22.796Z,7.27
2019-06-10T12:58:24.812Z,7.20
2019-06-10T13:03:27.514Z,7.33
2019-06-10T13:08:33.738Z,6.80
2019-06-10T13:13:35.947Z,7.23
2019-06-10T13:18:38.125Z,7.00
2019-06-10T13:23:42.892Z,7.63
2019-06-10T13:28:44.601Z,7.50
2019-06-10T13:33:47.101Z,8.83
2019-06-10T13:38:49.666Z,7.40
2019-06-10T13:43:52.844Z,8.23
2019-06-10T13:48:55.940Z,7.60
2019-06-10T13:53:58.713Z,8.30
2019-06-10T13:59:03.674Z,8.30
2019-06-10T14:04:13.769Z,7.87
2019-06-10T14:09:16.276Z,8.37
2019-06-10T14:14:18.128Z,8.70
2019-06-10T14:19:20.378Z,8.47
2019-06-10T14:24:22.997Z,8.17
2019-06-10T14:29:25.702Z,8.07
2019-06-10T14:34:27.991Z,8.90
2019-06-10T14:39:32.941Z,8.07
2019-06-10T14:44:36.087Z,8.17
2019-06-10T14:49:38.552Z,8.50
2019-06-10T14:54:42.855Z,8.27
2019-06-10T14:59:45.520Z,8.33
2019-06-10T15:04:48.042Z,8.23
2019-06-10T15:09:52.621Z,8.57
2019-06-10T15:14:54.571Z,9.00
2019-06-10T15:19:56.866Z,8.50
2019-06-10T15:24:59.589Z,8.40
2019-06-10T15:30:11.309Z,8.83
2019-06-10T15:35:06.375Z,8.70
2019-06-10T15:40:09.515Z,9.50
2019-06-10T15:45:15.315Z,8.90
2019-06-10T15:50:18.737Z,9.30
2019-06-10T15:55:37.805Z,8.70
2019-06-10T16:00:28.973Z,9.03
2019-06-10T16:05:32.220Z,9.57
2019-06-10T16:10:34.912Z,8.90
2019-06-10T16:15:37.707Z,8.90
2019-06-10T16:20:42.749Z,9.10
2019-06-10T16:25:45.231Z,8.70
2019-06-10T16:30:47.875Z,9.33
2019-06-10T16:35:50.337Z,8.77
2019-06-10T16:40:53.815Z,9.13
2019-06-10T16:45:56.820Z,9.13
2019-06-10T16:50:59.504Z,9.40
2019-06-10T16:56:03.325Z,9.30
2019-06-10T17:01:05.797Z,9.57
2019-06-10T17:06:08.001Z,9.40
2019-06-10T17:11:12.329Z,9.63
2019-06-10T17:16:15.236Z,9.67
2019-06-10T17:21:19.398Z,9.97
2019-06-10T17:26:29.643Z,9.70
2019-06-10T17:31:30.845Z,9.60
2019-06-10T17:36:35.103Z,9.60
2019-06-10T17:41:36.534Z,9.50
2019-06-10T17:46:39.600Z,9.43
2019-06-10T17:51:43.286Z,9.40
2019-06-10T17:56:45.856Z,9.23
2019-06-10T18:01:48.048Z,10.07
2019-06-10T18:06:52.905Z,8.80
2019-06-10T18:11:55.631Z,9.07
2019-06-10T18:16:58.850Z,9.37
2019-06-10T18:22:03.003Z,9.67
2019-06-10T18:27:05.361Z,9.57
2019-06-10T18:32:07.600Z,9.43
2019-06-10T18:37:10.157Z,9.20
2019-06-10T18:42:12.802Z,9.40
2019-06-10T18:47:15.431Z,9.90
2019-06-10T18:52:18.219Z,9.70
2019-06-10T18:57:22.489Z,9.80
2019-06-10T19:02:24.750Z,9.60
2019-06-10T19:07:27.126Z,9.40
2019-06-10T19:12:29.653Z,9.60
2019-06-10T19:17:34.942Z,9.93
2019-06-10T19:22:37.900Z,11.00
2019-06-10T19:27:44.350Z,10.10
2019-06-10T19:32:46.573Z,10.23
2019-06-10T19:37:48.817Z,10.40
2019-06-10T19:42:52.511Z,10.77
2019-06-10T19:47:56.805Z,10.67
2019-06-10T19:52:59.273Z,10.90
2019-06-10T19:58:03.769Z,11.50
2019-06-10T20:03:05.658Z,11.20
2019-06-10T20:08:07.794Z,12.10
2019-06-10T20:13:10.008Z,12.30
2019-06-10T20:18:12.768Z,13.20
2019-06-10T20:23:15.357Z,13.50
2019-06-10T20:28:17.807Z,13.10
2019-06-10T20:33:35.837Z,13.90
2019-06-10T20:38:35.517Z,14.60
2019-06-10T20:43:39.247Z,15.33
2019-06-10T20:48:45.386Z,13.17
2019-06-10T20:53:46.460Z,13.10
2019-06-10T20:58:52.461Z,13.47
2019-06-10T21:03:55.655Z,14.10
2019-06-10T21:09:00.057Z,14.10
2019-06-10T21:14:03.177Z,15.03
2019-06-10T21:19:06.225Z,14.33
2019-06-10T21:24:08.612Z,13.80
2019-06-10T21:29:12.886Z,13.70
2019-06-10T21:34:14.905Z,14.30
2019-06-10T21:39:17.703Z,14.97
2019-06-10T21:44:22.978Z,15.93
2019-06-10T21:49:25.668Z,15.50
2019-06-10T21:54:29.826Z,15.37
2019-06-10T21:59:32.228Z,15.33
2019-06-10T22:04:35.002Z,16.23
2019-06-10T22:09:37.515Z,16.00
2019-06-10T22:14:42.262Z,15.73
2019-06-10T22:19:46.492Z,15.73
2019-06-10T22:24:49.164Z,15.83
2019-06-10T22:29:54.314Z,15.30
2019-06-10T22:34:59.971Z,18.07
2019-06-10T22:40:03.446Z,16.83
2019-06-10T22:45:07.508Z,15.90
2019-06-10T22:50:12.613Z,16.20
2019-06-10T22:55:15.893Z,17.13
2019-06-10T23:00:18.501Z,15.93
2019-06-10T23:05:23.323Z,16.57
2019-06-10T23:10:25.085Z,15.80
2019-06-10T23:15:27.243Z,16.43
2019-06-10T23:20:30.031Z,18.10
2019-06-10T23:25:34.784Z,17.17
2019-06-10T23:30:38.836Z,16.10
2019-06-10T23:35:42.934Z,14.37
2019-06-10T23:40:45.945Z,13.43
2019-06-10T23:45:48.104Z,12.80
2019-06-10T23:50:54.041Z,12.13
2019-06-10T23:55:56.168Z,10.57
